Montevallo, AL (35115)

7:20 PM CST on December 22, 2014 (GMT -0600)
Home | Change Station
CLOSE
Current Station
Personal Weather Station
Location: Montevallo, AL
Elevation: 604 ft
Nearby Weather Stations

Elev 604 ft 33.14 °N, 86.86 °W | Updated 10 seconds ago

Overcast
Overcast
52.3 °F
Feels Like 52.3 °F
N
1.6
Wind Variable Wind from SE
Gusts 2.2 mph

Today
High -- | Low -- °F
--% Chance of Precip.
Yesterday
High -- | Low -- °F
Precip. -- in
6:47 AM 4:44 PM
New Moon, 1% visible
Pressure 29.81 in
Visibility 10.0 miles
Clouds Overcast 500 ft
Dew Point 52 °F
Humidity 99%
Rainfall 0.15 in
Snow Depth Not available.
UV 0 out of 12
Pollen 1.90 out of 12
Air Quality Not available.
Flu Activity Not available.
METAR KEET 230053Z AUTO VRB04KT 10SM OVC005 12/11 A2981 RMK AO2 RAB2354E05 SLP094 P0001 T01170106

More Conditions Fewer Conditions

Pressure 29.81 in
Visibility 10.0 miles
Clouds Overcast 500 ft
Dew Point 52 °F
Humidity 99%
Rainfall 0.15 in
Snow Depth Not available.
UV 0 out of 12
Pollen 1.90 out of 12
Air Quality Not available.
Flu Activity Not available.
METAR KEET 230053Z AUTO VRB04KT 10SM OVC005 12/11 A2981 RMK AO2 RAB2354E05 SLP094 P0001 T01170106

More Conditions Fewer Conditions

10-Day Weather Forecast

Almanac

Astronomy

Dec. 22, 2014 Rise Set
Actual Time
Civil Twilight
Nautical Twilight
Astronomical Twilight
Moon
Length of Visible Light
Length of Day
Tomorrow will be .
, % of the Moon is Illuminated

Today's Extremes

State Highs State Lows

Community

WunderPhotos

Upload Photos

1,779,749 photos uploaded!

WunderBlogs® & News

Nearby

Air Quality

  Air Quality AQ Index Pollutant
Not available.

Snow Depth

Station Depth Elevation

Earthquake Activity

City Distance Mag. Time & Date
Minimum magnitude displayed is 2.5.

Coastal Water Temperatures

Place Temperature

Nearby Weather Stations